• Join FlightAware (Why Join?)
  • Login
  • US Flag 
10:02PM EDT


 

Airport Tracker/Info


-or-


 

Live Flight TrackerFlight Track Log ✈ N465TP ✈ 23-Aug-2013 ✈ 11WY - KCOD

Flight Track Log - Related Links

Times and Time Zones

All times are in EDT time to prevent confusion due to time zone crossing. See the N465TP flight status page for this flight to view local times or setup timezone preferences in your user account.

Time Position Orientation Groundspeed Altitude Reporting Facility
EDT Latitude Longitude Course Direction KTS MPH feet Rate Location/Type
08:14PM 44.9408 -105.0256 265° West 150 173 9,500  Level Salt Lake Center
08:15PM 44.9372 -105.0875 265° West 158 182 10,800 1,260 Climbing Salt Lake Center
08:16PM 44.9308 -105.1458 261° West 155 178 12,100 1,260 Climbing Salt Lake Center
08:17PM 44.9261 -105.2061 264° West 154 177 13,400 1,140 Climbing Salt Lake Center
08:18PM 44.9194 -105.2658 261° West 155 178 14,500 1,020 Climbing Salt Lake Center
08:19PM 44.9133 -105.3267 262° West 155 178 15,600 1,140 Climbing Salt Lake Center
08:20PM 44.9133 -105.4011 270° West 159 183 16,900 1,140 Climbing Salt Lake Center
08:21PM 44.9067 -105.4647 262° West 162 186 18,000 1,080 Climbing Salt Lake Center
08:22PM 44.9003 -105.5292 262° West 165 190 19,200 900 Climbing Salt Lake Center
08:23PM 44.8947 -105.5983 264° West 173 199 19,900 360 Climbing Salt Lake Center
08:24PM 44.8858 -105.6761 261° West 193 222 20,000  Climbing Salt Lake Center
08:25PM 44.8778 -105.7617 262° West 213 245 20,000  Level Salt Lake Center
08:26PM 44.8708 -105.8500 264° West 225 259 20,000  Level Salt Lake Center
08:27PM 44.8631 -105.9378 263° West 226 260 20,000  Level Salt Lake Center
08:28PM 44.8531 -106.0431 262° West 226 260 20,000  Level Salt Lake Center
08:29PM 44.8444 -106.1306 262° West 226 260 20,000  Level Salt Lake Center
08:30PM 44.8469 -106.2192 272° West 242 278 20,000  Level Salt Lake Center
08:31PM 44.8742 -106.3042 294° West 237 273 20,000  Level Salt Lake Center
08:32PM 44.8947 -106.3903 289° West 235 270 20,000  Level Salt Lake Center
08:33PM 44.9014 -106.4803 276° West 233 268 20,000  Level Salt Lake Center
08:34PM 44.8833 -106.5867 257° West 231 266 20,000  Level Salt Lake Center
08:35PM 44.8689 -106.6733 257° West 229 264 20,000  Level Salt Lake Center
08:36PM 44.8597 -106.7611 262° West 228 262 20,000  Level Salt Lake Center
08:38PM 44.8475 -106.8483 259° West 227 261 20,000  Level Salt Lake Center
08:39PM 44.8364 -106.9333 260° West 224 258 20,000  Level Salt Lake Center
08:40PM 44.8236 -107.0192 258° West 224 258 20,000  Level Salt Lake Center
08:41PM 44.8275 -107.1061 274° West 236 272 20,000  Level Salt Lake Center
08:42PM 44.8547 -107.2053 291° West 230 265 20,000  Level Salt Lake Center
08:43PM 44.8494 -107.2886 265° West 222 255 20,000  Level Salt Lake Center
08:44PM 44.8325 -107.3683 253° West 216 249 20,000  Level Salt Lake Center
08:45PM 44.8167 -107.4497 255° West 214 246 20,000  Level Salt Lake Center
08:46PM 44.8022 -107.5325 256° West 216 249 20,000  Level Salt Lake Center
08:47PM 44.7875 -107.6147 256° West 217 250 20,000  Level Salt Lake Center
08:48PM 44.7717 -107.6961 255° West 216 249 20,000  Level Salt Lake Center
08:49PM 44.7553 -107.7797 255° West 218 251 20,000  Level Salt Lake Center
08:50PM 44.7394 -107.8656 255° West 221 254 20,000  Level Salt Lake Center
08:51PM 44.7244 -107.9508 256° West 221 254 20,000  Level Salt Lake Center
08:52PM 44.7064 -108.0511 256° West 219 252 20,000  Level Salt Lake Center
08:53PM 44.6919 -108.1336 256° West 218 251 20,000  Level Salt Lake Center
08:54PM 44.6764 -108.2161 255° West 218 251 20,000  Level Salt Lake Center
08:55PM 44.6608 -108.3006 256° West 222 255 20,000 -660 Level Salt Lake Center
08:56PM 44.6458 -108.3794 255° West 214 246 18,700 -1,620 Descending Salt Lake Center
08:57PM 44.6306 -108.4586 255° West 210 242 16,700 -1,920 Descending Salt Lake Center
08:58PM 44.6158 -108.5383 255° West 211 243 14,800 -2,100 Descending Salt Lake Center
08:59PM 44.5975 -108.6342 255° West 212 244 12,400 -2,340 Descending Salt Lake Center
09:01PM 44.5681 -108.7417 257° West  Level FlightAware Approximate
09:08PM 44.5167 -109.0167 251° West  Level FlightAware Approximate
09:09PM 44.5202 -109.0238 251° West  Level Estimated
09:10PM 44.5167 -109.0167 251° West  Level FlightAware Approximate
09:11PM 44.5202 -109.0238 251° West  Level Estimated
09:12PM 44.5167 -109.0167 251° West  Level FlightAware Approximate
09:13PM 44.5202 -109.0238 251° West  Level Estimated
09:14PM 44.5167 -109.0167 251° West  Level FlightAware Approximate
09:15PM 44.5202 -109.0238 251° West  Level Estimated
09:16PM 44.5167 -109.0167 251° West  Level FlightAware Approximate
09:17PM 44.5202 -109.0238 251° West  Level Estimated
09:18PM 44.5167 -109.0167 251° West  Level FlightAware Approximate
09:19PM 44.5202 -109.0238 251° West  Level Estimated
09:20PM 44.5167 -109.0167 251° West  Level FlightAware Approximate